createdAt,value
2023-02-09T00:00:35.525Z,378
2023-02-09T00:02:40.880Z,377
2023-02-09T00:04:46.754Z,378
2023-02-09T00:06:51.927Z,375
2023-02-09T00:08:57.267Z,375
2023-02-09T00:11:02.558Z,382
2023-02-09T00:13:08.067Z,382
2023-02-09T00:15:13.405Z,374
2023-02-09T00:17:18.743Z,378
2023-02-09T00:19:24.205Z,377
2023-02-09T00:21:30.167Z,378
2023-02-09T00:23:35.739Z,381
2023-02-09T00:25:41.101Z,377
2023-02-09T00:27:46.522Z,382
2023-02-09T00:29:52.198Z,378
2023-02-09T00:31:57.796Z,382
2023-02-09T00:34:02.915Z,375
2023-02-09T00:36:08.242Z,378
2023-02-09T00:38:13.697Z,382
2023-02-09T00:40:18.864Z,375
2023-02-09T00:42:24.352Z,378
2023-02-09T00:44:29.898Z,375
2023-02-09T00:46:35.411Z,376
2023-02-09T00:48:40.945Z,376
2023-02-09T00:50:47.653Z,375
2023-02-09T00:52:53.499Z,376
2023-02-09T00:54:58.888Z,376
2023-02-09T00:57:04.252Z,375
2023-02-09T00:59:10.314Z,377
2023-02-09T01:01:15.915Z,375
2023-02-09T01:03:21.180Z,375
2023-02-09T01:05:26.977Z,376
2023-02-09T01:07:32.483Z,374
2023-02-09T01:09:37.714Z,376
2023-02-09T01:11:43.186Z,375
2023-02-09T01:13:49.729Z,375
2023-02-09T01:15:55.245Z,376
2023-02-09T01:18:00.385Z,384
2023-02-09T01:20:06.265Z,382
2023-02-09T01:22:11.536Z,382
2023-02-09T01:24:16.970Z,381
2023-02-09T01:26:22.179Z,375
2023-02-09T01:28:27.762Z,375
2023-02-09T01:30:33.385Z,375
2023-02-09T01:32:39.021Z,384
2023-02-09T01:34:44.915Z,381
2023-02-09T01:36:50.346Z,379
2023-02-09T01:38:55.690Z,382
2023-02-09T01:41:01.703Z,377
2023-02-09T01:43:07.998Z,377
2023-02-09T01:45:13.581Z,382
2023-02-09T01:47:18.897Z,376
2023-02-09T01:49:24.190Z,384
2023-02-09T01:51:29.402Z,382
2023-02-09T01:53:34.679Z,378
2023-02-09T01:55:40.557Z,381
2023-02-09T01:57:46.058Z,376
2023-02-09T01:59:51.192Z,379
2023-02-09T02:01:56.814Z,382
2023-02-09T02:04:02.251Z,382
2023-02-09T02:06:07.639Z,382
2023-02-09T02:08:13.063Z,382
2023-02-09T02:10:18.757Z,382
2023-02-09T02:12:25.233Z,382
2023-02-09T02:14:30.807Z,382
2023-02-09T02:16:36.128Z,382
2023-02-09T02:18:41.437Z,382
2023-02-09T02:20:48.363Z,382
2023-02-09T02:22:53.959Z,382
2023-02-09T02:24:59.619Z,382
2023-02-09T02:27:05.700Z,382
2023-02-09T02:29:11.037Z,381
2023-02-09T02:31:16.820Z,382
2023-02-09T02:33:23.188Z,382
2023-02-09T02:35:28.542Z,382
2023-02-09T02:37:33.841Z,382
2023-02-09T02:39:39.503Z,376
2023-02-09T02:41:45.253Z,381
2023-02-09T02:43:50.567Z,376
2023-02-09T02:45:55.750Z,375
2023-02-09T02:48:01.342Z,384
2023-02-09T02:50:06.609Z,375
2023-02-09T02:52:12.061Z,376
2023-02-09T02:54:17.636Z,376
2023-02-09T02:56:22.978Z,375
2023-02-09T02:58:28.193Z,375
2023-02-09T03:00:33.343Z,375
2023-02-09T03:02:38.645Z,376
2023-02-09T03:04:44.066Z,377
2023-02-09T03:06:49.356Z,376
2023-02-09T03:08:55.336Z,382
2023-02-09T03:11:01.038Z,376
2023-02-09T03:13:06.424Z,377
2023-02-09T03:15:11.482Z,377
2023-02-09T03:17:17.037Z,376
2023-02-09T03:19:22.293Z,375
2023-02-09T03:21:28.062Z,377
2023-02-09T03:23:33.422Z,375
2023-02-09T03:25:38.926Z,376
2023-02-09T03:27:44.460Z,375
2023-02-09T03:29:49.816Z,375
2023-02-09T03:31:55.114Z,377
2023-02-09T03:34:01.119Z,376
2023-02-09T03:36:06.885Z,382
2023-02-09T03:38:13.887Z,384
2023-02-09T03:40:20.060Z,382
2023-02-09T03:42:25.831Z,382
2023-02-09T03:44:31.071Z,375
2023-02-09T03:46:36.505Z,377
2023-02-09T03:48:42.147Z,384
2023-02-09T03:50:48.819Z,377
2023-02-09T03:52:54.008Z,377
2023-02-09T03:54:59.812Z,382
2023-02-09T03:57:05.153Z,384
2023-02-09T03:59:10.447Z,384
2023-02-09T04:01:15.817Z,382
2023-02-09T04:03:21.255Z,384
2023-02-09T04:05:27.164Z,382
2023-02-09T04:07:32.651Z,382
2023-02-09T04:09:38.410Z,384
2023-02-09T04:11:43.589Z,384
2023-02-09T04:13:49.011Z,384
2023-02-09T04:15:54.428Z,384
2023-02-09T04:18:00.112Z,384
2023-02-09T04:20:05.296Z,384
2023-02-09T04:22:10.616Z,382
2023-02-09T04:24:15.931Z,384
2023-02-09T04:26:21.212Z,384
2023-02-09T04:28:27.146Z,382
2023-02-09T04:30:32.715Z,384
2023-02-09T04:32:38.356Z,384
2023-02-09T04:34:43.697Z,384
2023-02-09T04:36:49.194Z,384
2023-02-09T04:38:54.461Z,384
2023-02-09T04:41:00.027Z,384
2023-02-09T04:43:05.580Z,384
2023-02-09T04:45:10.746Z,376
2023-02-09T04:47:16.704Z,375
2023-02-09T04:49:22.258Z,382
2023-02-09T04:51:27.679Z,376
2023-02-09T04:53:33.066Z,378
2023-02-09T04:55:38.519Z,382
2023-02-09T04:57:43.834Z,382
2023-02-09T04:59:49.200Z,382
2023-02-09T05:01:54.813Z,382
2023-02-09T05:04:00.668Z,375
2023-02-09T05:06:06.101Z,382
2023-02-09T05:08:11.308Z,382
2023-02-09T05:10:17.140Z,382
2023-02-09T05:12:22.592Z,382
2023-02-09T05:14:27.818Z,384
2023-02-09T05:16:33.448Z,382
2023-02-09T05:18:39.482Z,384
2023-02-09T05:20:45.831Z,382
2023-02-09T05:22:52.737Z,382
2023-02-09T05:24:58.176Z,384
2023-02-09T05:27:03.452Z,384
2023-02-09T05:29:08.492Z,384
2023-02-09T05:31:14.093Z,382
2023-02-09T05:33:20.081Z,376
2023-02-09T05:35:25.551Z,378
2023-02-09T05:37:31.139Z,376
2023-02-09T05:39:36.507Z,375
2023-02-09T05:41:41.943Z,377
2023-02-09T05:43:47.179Z,377
2023-02-09T05:45:52.548Z,377
2023-02-09T05:47:57.710Z,382
2023-02-09T05:50:03.202Z,376
2023-02-09T05:52:08.786Z,376
2023-02-09T05:54:13.946Z,376
2023-02-09T05:56:19.469Z,378
2023-02-09T05:58:24.497Z,377
2023-02-09T06:00:29.944Z,377
2023-02-09T06:02:35.905Z,382
2023-02-09T06:04:41.356Z,384
2023-02-09T06:06:46.733Z,382
2023-02-09T06:08:52.336Z,382
2023-02-09T06:10:58.370Z,376
2023-02-09T06:13:03.852Z,377
2023-02-09T06:15:09.381Z,382
2023-02-09T06:17:14.799Z,384
2023-02-09T06:19:20.389Z,382
2023-02-09T06:21:25.859Z,382
2023-02-09T06:23:31.150Z,374
2023-02-09T06:25:40.022Z,375
2023-02-09T06:27:45.627Z,376
2023-02-09T06:29:51.115Z,375
2023-02-09T06:31:57.696Z,378
2023-02-09T06:34:03.304Z,384
2023-02-09T06:36:08.796Z,375
2023-02-09T06:38:14.684Z,376
2023-02-09T06:40:20.348Z,375
2023-02-09T06:42:26.898Z,375
2023-02-09T06:44:33.921Z,375
2023-02-09T06:46:39.842Z,381
2023-02-09T06:48:45.666Z,382
2023-02-09T06:50:52.231Z,378
2023-02-09T06:52:58.208Z,379
2023-02-09T06:55:03.798Z,378
2023-02-09T06:57:09.120Z,382
2023-02-09T06:59:14.956Z,378
2023-02-09T07:01:20.897Z,375
2023-02-09T07:03:26.315Z,378
2023-02-09T07:05:31.731Z,377
2023-02-09T07:07:37.185Z,377
2023-02-09T07:09:42.403Z,376
2023-02-09T07:11:47.891Z,382
2023-02-09T07:13:53.438Z,382
2023-02-09T07:15:59.240Z,384
2023-02-09T07:18:04.754Z,384
2023-02-09T07:20:10.323Z,384
2023-02-09T07:22:15.801Z,374
2023-02-09T07:24:21.117Z,374
2023-02-09T07:26:26.577Z,374
2023-02-09T07:28:32.802Z,376
2023-02-09T07:30:39.173Z,375
2023-02-09T07:32:44.737Z,376
2023-02-09T07:34:50.349Z,377
2023-02-09T07:36:56.344Z,376
2023-02-09T07:39:03.070Z,384
2023-02-09T07:41:08.736Z,382
2023-02-09T07:43:14.078Z,375
2023-02-09T07:45:19.668Z,377
2023-02-09T07:47:25.018Z,378
2023-02-09T07:49:31.015Z,378
2023-02-09T07:51:36.967Z,375
2023-02-09T07:53:42.447Z,377
2023-02-09T07:55:48.930Z,376
2023-02-09T07:57:54.466Z,374
2023-02-09T08:00:03.056Z,375
2023-02-09T08:02:08.978Z,375
2023-02-09T08:04:14.891Z,375
2023-02-09T08:06:30.473Z,377
2023-02-09T08:08:47.274Z,378
2023-02-09T08:10:53.370Z,374
2023-02-09T08:12:58.813Z,375
2023-02-09T08:15:04.220Z,374
2023-02-09T08:17:10.243Z,375
2023-02-09T08:19:15.492Z,374
2023-02-09T08:21:21.036Z,375
2023-02-09T08:23:26.697Z,375
2023-02-09T08:25:32.318Z,375
2023-02-09T08:27:38.079Z,375
2023-02-09T08:29:43.530Z,375
2023-02-09T08:31:49.324Z,374
2023-02-09T08:33:54.867Z,375
2023-02-09T08:36:00.271Z,382
2023-02-09T08:38:06.170Z,375
2023-02-09T08:40:11.482Z,374
2023-02-09T08:42:17.088Z,377
2023-02-09T08:44:22.474Z,377
2023-02-09T08:46:28.947Z,382
2023-02-09T08:48:37.295Z,376
2023-02-09T08:50:42.756Z,375
2023-02-09T08:52:48.503Z,377
2023-02-09T08:54:54.071Z,375
2023-02-09T08:56:59.407Z,375
2023-02-09T08:59:05.068Z,376
2023-02-09T09:01:11.048Z,376
2023-02-09T09:03:16.439Z,374
2023-02-09T09:05:21.845Z,377
2023-02-09T09:07:27.780Z,382
2023-02-09T09:09:33.106Z,382
2023-02-09T09:11:38.422Z,382
2023-02-09T09:13:43.852Z,382
2023-02-09T09:15:52.181Z,375
2023-02-09T09:17:57.595Z,375
2023-02-09T09:20:02.763Z,376
2023-02-09T09:22:08.001Z,377
2023-02-09T09:24:14.207Z,382
2023-02-09T09:26:20.287Z,382
2023-02-09T09:28:26.971Z,382
2023-02-09T09:30:33.302Z,374
2023-02-09T09:32:39.275Z,379
2023-02-09T09:34:46.491Z,384
2023-02-09T09:37:15.162Z,382
2023-02-09T09:39:21.105Z,384
2023-02-09T09:41:28.922Z,381
2023-02-09T09:43:34.182Z,382
2023-02-09T09:45:41.126Z,382
2023-02-09T09:47:46.636Z,382
2023-02-09T09:49:52.051Z,382
2023-02-09T09:51:57.608Z,378
2023-02-09T09:54:03.019Z,375
2023-02-09T09:56:08.316Z,374
2023-02-09T09:58:18.412Z,376
2023-02-09T10:00:24.353Z,376
2023-02-09T10:02:30.087Z,375
2023-02-09T10:04:38.234Z,375
2023-02-09T10:06:46.099Z,376
2023-02-09T10:08:52.716Z,374
2023-02-09T10:10:58.543Z,382
2023-02-09T10:13:04.185Z,382
2023-02-09T10:15:09.846Z,382
2023-02-09T10:17:15.547Z,379
2023-02-09T10:19:21.644Z,384
2023-02-09T10:21:28.019Z,377
2023-02-09T10:23:34.806Z,377
2023-02-09T10:25:45.928Z,377
2023-02-09T10:27:52.008Z,374
2023-02-09T10:29:57.447Z,384
2023-02-09T10:32:02.884Z,376
2023-02-09T10:34:08.542Z,378
2023-02-09T10:36:14.380Z,377
2023-02-09T10:38:19.626Z,382
2023-02-09T10:40:24.757Z,384
2023-02-09T10:42:31.442Z,382
2023-02-09T10:44:38.188Z,382
2023-02-09T10:46:45.754Z,382
2023-02-09T10:48:51.697Z,381
2023-02-09T10:50:57.312Z,382
2023-02-09T10:53:03.644Z,382
2023-02-09T10:55:09.224Z,382
2023-02-09T10:57:14.694Z,375
2023-02-09T10:59:20.064Z,375
2023-02-09T11:01:26.070Z,384
2023-02-09T11:03:31.857Z,384
2023-02-09T11:05:37.337Z,384
2023-02-09T11:07:42.939Z,384
2023-02-09T11:09:49.406Z,384
2023-02-09T11:11:55.789Z,384
2023-02-09T11:14:01.823Z,384
2023-02-09T11:16:07.670Z,384
2023-02-09T11:18:13.157Z,375
2023-02-09T11:20:18.629Z,375
2023-02-09T11:22:30.673Z,379
2023-02-09T11:24:36.247Z,379
2023-02-09T11:26:41.913Z,375
2023-02-09T11:28:49.455Z,375
2023-02-09T11:30:58.864Z,375
2023-02-09T11:33:04.830Z,377
2023-02-09T11:35:39.904Z,376
2023-02-09T11:37:48.170Z,377
2023-02-09T11:39:53.897Z,382
2023-02-09T11:41:59.882Z,376
2023-02-09T11:44:05.461Z,376
2023-02-09T11:46:10.931Z,375
2023-02-09T11:48:16.470Z,384
2023-02-09T11:50:22.613Z,375
2023-02-09T11:52:28.120Z,376
2023-02-09T11:54:34.559Z,377
2023-02-09T11:56:44.585Z,373
2023-02-09T11:58:50.639Z,375
2023-02-09T12:01:17.867Z,377
2023-02-09T12:03:24.488Z,376
2023-02-09T12:05:30.619Z,382
2023-02-09T12:07:36.354Z,377
2023-02-09T12:09:41.959Z,375
2023-02-09T12:11:47.417Z,376
2023-02-09T12:13:52.930Z,377
2023-02-09T12:15:58.652Z,377
2023-02-09T12:18:03.997Z,384
2023-02-09T12:20:09.798Z,376
2023-02-09T12:22:15.344Z,376
2023-02-09T12:24:22.429Z,376
2023-02-09T12:26:28.128Z,376
2023-02-09T12:28:34.324Z,376
2023-02-09T12:30:40.012Z,378
2023-02-09T12:32:45.392Z,376
2023-02-09T12:34:51.872Z,375
2023-02-09T12:36:58.626Z,382
2023-02-09T12:39:08.331Z,382
2023-02-09T12:41:13.972Z,374
2023-02-09T12:43:20.417Z,376
2023-02-09T12:45:28.329Z,377
2023-02-09T12:47:33.942Z,376
2023-02-09T12:49:39.323Z,375
2023-02-09T12:51:46.778Z,375
2023-02-09T12:53:52.623Z,375
2023-02-09T12:55:59.013Z,375
2023-02-09T12:58:04.476Z,384
2023-02-09T13:00:10.307Z,376
2023-02-09T13:02:16.023Z,376
2023-02-09T13:04:21.420Z,375
2023-02-09T13:06:28.658Z,376
2023-02-09T13:08:34.724Z,376
2023-02-09T13:10:39.987Z,376
2023-02-09T13:12:46.182Z,378
2023-02-09T13:14:51.559Z,376
2023-02-09T13:16:57.399Z,378
2023-02-09T13:19:03.089Z,377
2023-02-09T13:21:08.886Z,375
2023-02-09T13:23:14.740Z,376
2023-02-09T13:25:20.091Z,374
2023-02-09T13:27:25.396Z,375
2023-02-09T13:29:30.694Z,375
2023-02-09T13:31:36.432Z,377
2023-02-09T13:33:41.790Z,375
2023-02-09T13:35:48.495Z,374
2023-02-09T13:37:53.996Z,377
2023-02-09T13:40:00.252Z,375
2023-02-09T13:42:10.762Z,377
2023-02-09T13:44:17.254Z,375
2023-02-09T13:46:22.843Z,376
2023-02-09T13:48:29.086Z,376
2023-02-09T13:50:35.523Z,376
2023-02-09T13:52:41.707Z,376
2023-02-09T13:54:47.171Z,375
2023-02-09T13:56:53.846Z,375
2023-02-09T13:59:00.254Z,376
2023-02-09T14:01:06.131Z,375
2023-02-09T14:03:11.945Z,375
2023-02-09T14:05:17.790Z,375
2023-02-09T14:07:23.462Z,375
2023-02-09T14:09:29.740Z,375
2023-02-09T14:11:44.873Z,375
2023-02-09T14:13:50.132Z,376
2023-02-09T14:15:55.776Z,375
2023-02-09T14:18:01.063Z,376
2023-02-09T14:20:06.401Z,375
2023-02-09T14:22:11.899Z,375
2023-02-09T14:24:17.189Z,377
2023-02-09T14:26:22.750Z,375
2023-02-09T14:28:28.403Z,375
2023-02-09T14:30:34.185Z,376
2023-02-09T14:32:39.449Z,373
2023-02-09T14:34:47.093Z,370
2023-02-09T14:36:52.707Z,368
2023-02-09T14:38:58.140Z,370
2023-02-09T14:41:03.500Z,373
2023-02-09T14:43:08.789Z,373
2023-02-09T14:45:14.610Z,373
2023-02-09T14:47:20.014Z,370
2023-02-09T14:49:25.961Z,369
2023-02-09T14:51:31.288Z,373
2023-02-09T14:53:36.697Z,374
2023-02-09T14:55:42.999Z,374
2023-02-09T14:57:49.208Z,373
2023-02-09T14:59:54.635Z,375
2023-02-09T15:02:00.369Z,374
2023-02-09T15:04:06.082Z,375
2023-02-09T15:06:11.656Z,375
2023-02-09T15:08:16.984Z,375
2023-02-09T15:10:37.063Z,374
2023-02-09T15:12:45.633Z,375
2023-02-09T15:14:51.490Z,374
2023-02-09T15:16:57.419Z,376
2023-02-09T15:19:02.823Z,374
2023-02-09T15:21:08.536Z,375
2023-02-09T15:23:14.476Z,376
2023-02-09T15:25:20.766Z,375
2023-02-09T15:27:26.846Z,376
2023-02-09T15:29:36.527Z,376
2023-02-09T15:31:42.182Z,375
2023-02-09T15:33:47.760Z,377
2023-02-09T15:35:53.537Z,375
2023-02-09T15:37:59.784Z,375
2023-02-09T15:40:05.473Z,377
2023-02-09T15:42:11.485Z,375
2023-02-09T15:44:17.495Z,375
2023-02-09T15:46:23.500Z,377
2023-02-09T15:48:30.021Z,375
2023-02-09T15:50:35.313Z,376
2023-02-09T15:52:41.273Z,375
2023-02-09T15:54:47.473Z,374
2023-02-09T15:56:56.299Z,375
2023-02-09T15:59:03.107Z,375
2023-02-09T16:01:11.238Z,375
2023-02-09T16:03:18.181Z,374
2023-02-09T16:05:23.826Z,376
2023-02-09T16:07:30.127Z,376
2023-02-09T16:09:35.912Z,375
2023-02-09T16:11:43.101Z,376
2023-02-09T16:13:50.367Z,373
2023-02-09T16:16:18.471Z,375
2023-02-09T16:18:39.806Z,375
2023-02-09T16:20:48.557Z,375
2023-02-09T16:22:54.386Z,375
2023-02-09T16:25:00.899Z,376
2023-02-09T16:27:07.830Z,375
2023-02-09T16:29:14.560Z,376
2023-02-09T16:31:25.671Z,375
2023-02-09T16:33:32.131Z,376
2023-02-09T16:35:40.129Z,376
2023-02-09T16:37:49.172Z,376
2023-02-09T16:39:55.071Z,374
2023-02-09T16:42:01.096Z,376
2023-02-09T16:44:12.301Z,375
2023-02-09T16:46:21.259Z,375
2023-02-09T16:48:28.386Z,376
2023-02-09T16:50:35.589Z,375
2023-02-09T16:52:44.444Z,375
2023-02-09T16:54:54.400Z,377
2023-02-09T16:57:05.012Z,378
2023-02-09T16:59:12.515Z,377
2023-02-09T17:01:22.018Z,377
2023-02-09T17:03:29.506Z,377
2023-02-09T17:05:37.819Z,378
2023-02-09T17:07:57.554Z,376
2023-02-09T17:10:04.345Z,376
2023-02-09T17:12:10.993Z,377
2023-02-09T17:14:16.700Z,376
2023-02-09T17:16:24.472Z,377
2023-02-09T17:18:32.031Z,378
2023-02-09T17:20:39.015Z,377
2023-02-09T17:22:46.344Z,377
2023-02-09T17:24:55.179Z,376
2023-02-09T17:27:03.105Z,378
2023-02-09T17:29:10.217Z,377
2023-02-09T17:31:18.538Z,378
2023-02-09T17:33:26.379Z,376
2023-02-09T17:36:31.442Z,375
2023-02-09T17:38:40.067Z,375
2023-02-09T17:40:46.462Z,375
2023-02-09T17:42:54.343Z,374
2023-02-09T17:45:02.468Z,375
2023-02-09T17:47:13.796Z,376
2023-02-09T17:49:21.250Z,376
2023-02-09T17:51:29.230Z,376
2023-02-09T17:53:36.772Z,376
2023-02-09T17:55:45.021Z,374
2023-02-09T17:57:52.580Z,376
2023-02-09T17:59:59.368Z,375
2023-02-09T18:02:06.999Z,376
2023-02-09T18:04:14.443Z,377
2023-02-09T18:06:22.826Z,377
2023-02-09T18:08:29.927Z,377
2023-02-09T18:10:37.317Z,375
2023-02-09T18:12:47.238Z,375
2023-02-09T18:14:54.707Z,375
2023-02-09T18:17:03.776Z,377
2023-02-09T18:19:12.023Z,376
2023-02-09T18:21:19.485Z,376
2023-02-09T18:23:29.240Z,377
2023-02-09T18:25:38.915Z,377
2023-02-09T18:27:47.855Z,376
2023-02-09T18:29:55.955Z,376
2023-02-09T18:32:04.832Z,376
2023-02-09T18:34:20.298Z,376
2023-02-09T18:36:27.988Z,377
2023-02-09T18:38:38.149Z,375
2023-02-09T18:40:47.936Z,376
2023-02-09T18:42:56.407Z,376
2023-02-09T18:45:16.035Z,376
2023-02-09T18:47:23.242Z,377
2023-02-09T18:49:46.255Z,377
2023-02-09T18:51:54.933Z,376
2023-02-09T18:54:04.051Z,377
2023-02-09T18:56:12.989Z,375
2023-02-09T18:58:21.250Z,376
2023-02-09T19:00:30.134Z,377
2023-02-09T19:02:40.100Z,376
2023-02-09T19:04:49.526Z,377
2023-02-09T19:07:01.617Z,377
2023-02-09T19:09:09.575Z,377
2023-02-09T19:11:17.541Z,377
2023-02-09T19:13:25.936Z,376
2023-02-09T19:15:34.606Z,376
2023-02-09T19:17:44.353Z,377
2023-02-09T19:19:54.541Z,379
2023-02-09T19:22:08.628Z,377
2023-02-09T19:24:16.011Z,378
2023-02-09T19:26:27.805Z,377
2023-02-09T19:28:40.941Z,377
2023-02-09T19:30:49.615Z,376
2023-02-09T19:33:07.330Z,377
2023-02-09T19:35:21.271Z,377
2023-02-09T19:37:34.770Z,376
2023-02-09T19:39:49.359Z,377
2023-02-09T19:42:03.544Z,377
2023-02-09T19:44:18.955Z,377
2023-02-09T19:46:28.740Z,379
2023-02-09T19:48:39.952Z,377
2023-02-09T19:50:49.497Z,376
2023-02-09T19:52:57.806Z,377
2023-02-09T19:55:06.020Z,378
2023-02-09T19:57:14.173Z,376
2023-02-09T19:59:26.722Z,377
2023-02-09T20:01:34.795Z,377
2023-02-09T20:03:44.979Z,377
2023-02-09T20:05:53.410Z,378
2023-02-09T20:08:01.622Z,377
2023-02-09T20:10:11.172Z,377
2023-02-09T20:12:22.091Z,377
2023-02-09T20:14:35.840Z,376
2023-02-09T20:16:45.821Z,377
2023-02-09T20:18:54.722Z,378
2023-02-09T20:21:07.884Z,376
2023-02-09T20:23:20.767Z,377
2023-02-09T20:25:29.685Z,378
2023-02-09T20:27:42.419Z,377
2023-02-09T20:29:51.145Z,377
2023-02-09T20:31:58.924Z,375
2023-02-09T20:34:12.671Z,377
2023-02-09T20:36:21.100Z,377
2023-02-09T20:38:34.153Z,378
2023-02-09T20:40:43.649Z,378
2023-02-09T20:43:04.676Z,377
2023-02-09T20:45:12.741Z,378
2023-02-09T20:47:21.958Z,377
2023-02-09T20:49:36.210Z,377
2023-02-09T20:51:46.426Z,377
2023-02-09T20:53:55.737Z,377
2023-02-09T20:56:04.725Z,376
2023-02-09T20:58:15.302Z,377
2023-02-09T21:00:22.882Z,377
2023-02-09T21:02:32.566Z,377
2023-02-09T21:04:46.259Z,375
2023-02-09T21:06:53.977Z,376
2023-02-09T21:09:05.924Z,377
2023-02-09T21:11:13.865Z,377
2023-02-09T21:13:22.128Z,377
2023-02-09T21:15:29.401Z,377
2023-02-09T21:17:37.014Z,377
2023-02-09T21:19:44.328Z,378
2023-02-09T21:21:51.193Z,377
2023-02-09T21:23:58.288Z,378
2023-02-09T21:26:05.610Z,378
2023-02-09T21:28:12.784Z,377
2023-02-09T21:30:19.279Z,377
2023-02-09T21:32:26.141Z,378
2023-02-09T21:34:32.020Z,377
2023-02-09T21:36:40.264Z,376
2023-02-09T21:38:46.638Z,375
2023-02-09T21:40:53.257Z,376
2023-02-09T21:43:01.084Z,376
2023-02-09T21:45:09.511Z,377
2023-02-09T21:47:15.162Z,378
2023-02-09T21:49:24.302Z,377
2023-02-09T21:51:29.676Z,378
2023-02-09T21:53:35.559Z,377
2023-02-09T21:55:41.613Z,376
2023-02-09T21:57:47.479Z,376
2023-02-09T21:59:52.936Z,376
2023-02-09T22:01:58.658Z,376
2023-02-09T22:04:04.254Z,377
2023-02-09T22:06:09.965Z,377
2023-02-09T22:08:15.507Z,377
2023-02-09T22:10:21.246Z,376
2023-02-09T22:12:26.760Z,376
2023-02-09T22:14:32.802Z,375
2023-02-09T22:16:38.247Z,375
2023-02-09T22:18:43.792Z,375
2023-02-09T22:20:50.446Z,375
2023-02-09T22:22:55.778Z,377
2023-02-09T22:25:01.523Z,375
2023-02-09T22:27:09.707Z,375
2023-02-09T22:29:15.486Z,377
2023-02-09T22:31:21.430Z,376
2023-02-09T22:33:27.111Z,375
2023-02-09T22:35:32.381Z,378
2023-02-09T22:37:37.569Z,378
2023-02-09T22:39:42.747Z,376
2023-02-09T22:41:48.013Z,378
2023-02-09T22:43:53.469Z,374
2023-02-09T22:45:58.770Z,377
2023-02-09T22:48:04.127Z,377
2023-02-09T22:50:09.516Z,378
2023-02-09T22:52:14.695Z,378
2023-02-09T22:54:20.055Z,378
2023-02-09T22:56:25.649Z,378
2023-02-09T22:58:31.174Z,378
2023-02-09T23:00:37.317Z,378
2023-02-09T23:02:42.656Z,377
2023-02-09T23:04:48.402Z,379
2023-02-09T23:06:53.910Z,379
2023-02-09T23:09:00.049Z,379
2023-02-09T23:11:05.678Z,377
2023-02-09T23:13:11.276Z,377
2023-02-09T23:15:16.572Z,377
2023-02-09T23:17:22.686Z,377
2023-02-09T23:19:28.173Z,378
2023-02-09T23:21:33.656Z,378
2023-02-09T23:23:38.962Z,376
2023-02-09T23:25:44.269Z,377
2023-02-09T23:27:50.088Z,378
2023-02-09T23:29:55.409Z,378
2023-02-09T23:32:01.628Z,378
2023-02-09T23:34:07.092Z,377
2023-02-09T23:36:12.763Z,376
2023-02-09T23:38:18.106Z,377
2023-02-09T23:40:23.465Z,377
2023-02-09T23:42:29.073Z,377
2023-02-09T23:44:34.301Z,377
2023-02-09T23:46:39.980Z,378
2023-02-09T23:48:45.394Z,378
2023-02-09T23:50:50.887Z,377
2023-02-09T23:52:56.181Z,376
2023-02-09T23:55:04.935Z,378
2023-02-09T23:57:10.291Z,378
2023-02-09T23:59:15.559Z,378
